DAL223 TNCC-TJSJ
Flight info
| Callsign | DAL223 |
|---|---|
| Flight time | 1h 1m |
| Altitude | 29000 |
| Route | SCAPA1K SCAPA DCT DAKES DCT CLAYO RTE9 SJU |
| Aircraft | B737/M-SDE2E3FGHIRWXY/LB1 |
Departure
| Time | 2026-04-15 03:46 |
|---|---|
| Airport | Hato International Airport (TNCC) |
Arrival
| Time | 2026-04-15 04:48 |
|---|---|
| Airport | Luis Munoz Marin International Airport (TJSJ) |
| Time | Latitude | Longitude | Altitude | Speed | Heading |
|---|---|---|---|---|---|
| 2026-04-15 03:24 | 12.18566 | -68.95725 | 42 ft | 0 kts | 178° |
| 2026-04-15 03:37 | 12.18567 | -68.95725 | 42 ft | 2 kts | 178° |
| 2026-04-15 03:37 | 12.18583 | -68.95726 | 42 ft | 2 kts | 178° |
| 2026-04-15 03:38 | 12.18599 | -68.95726 | 39 ft | 2 kts | 178° |
| 2026-04-15 03:38 | 12.18615 | -68.95727 | 40 ft | 2 kts | 187° |
| 2026-04-15 03:38 | 12.18630 | -68.95721 | 39 ft | 2 kts | 247° |
| 2026-04-15 03:38 | 12.18633 | -68.95714 | 40 ft | 0 kts | 262° |
| 2026-04-15 03:40 | 12.18632 | -68.95715 | 40 ft | 1 kts | 262° |
| 2026-04-15 03:41 | 12.18640 | -68.95752 | 40 ft | 7 kts | 291° |
| 2026-04-15 03:41 | 12.18659 | -68.95801 | 41 ft | 7 kts | 292° |
| 2026-04-15 03:41 | 12.18677 | -68.95851 | 42 ft | 8 kts | 283° |
| 2026-04-15 03:41 | 12.18690 | -68.95912 | 42 ft | 10 kts | 282° |
| 2026-04-15 03:42 | 12.18704 | -68.95985 | 42 ft | 12 kts | 282° |
| 2026-04-15 03:42 | 12.18722 | -68.96073 | 41 ft | 14 kts | 282° |
| 2026-04-15 03:42 | 12.18744 | -68.96177 | 41 ft | 17 kts | 282° |
| 2026-04-15 03:42 | 12.18769 | -68.96302 | 39 ft | 20 kts | 282° |
| 2026-04-15 03:43 | 12.18803 | -68.96447 | 39 ft | 22 kts | 289° |
| 2026-04-15 03:43 | 12.18842 | -68.96601 | 38 ft | 22 kts | 283° |
| 2026-04-15 03:43 | 12.18873 | -68.96752 | 39 ft | 21 kts | 281° |
| 2026-04-15 03:43 | 12.18901 | -68.96899 | 38 ft | 21 kts | 282° |
| 2026-04-15 03:44 | 12.18932 | -68.97042 | 39 ft | 20 kts | 283° |
| 2026-04-15 03:44 | 12.18963 | -68.97179 | 39 ft | 20 kts | 283° |
| 2026-04-15 03:44 | 12.18990 | -68.97313 | 39 ft | 19 kts | 280° |
| 2026-04-15 03:44 | 12.19016 | -68.97441 | 39 ft | 18 kts | 282° |
| 2026-04-15 03:45 | 12.19042 | -68.97566 | 36 ft | 18 kts | 282° |
| 2026-04-15 03:45 | 12.19111 | -68.97644 | 39 ft | 17 kts | 6° |
| 2026-04-15 03:45 | 12.19205 | -68.97591 | 38 ft | 16 kts | 72° |
| 2026-04-15 03:45 | 12.19202 | -68.97427 | 39 ft | 37 kts | 104° |
| 2026-04-15 03:46 | 12.19106 | -68.97016 | 39 ft | 90 kts | 103° |
| 2026-04-15 03:46 | 12.18920 | -68.96168 | 69 ft | 149 kts | 103° |
| 2026-04-15 03:46 | 12.18734 | -68.95017 | 415 ft | 180 kts | 97° |
| 2026-04-15 03:46 | 12.18504 | -68.93687 | 935 ft | 197 kts | 98° |
| 2026-04-15 03:47 | 12.18265 | -68.92297 | 1675 ft | 196 kts | 101° |
| 2026-04-15 03:47 | 12.17949 | -68.90961 | 2341 ft | 204 kts | 101° |
| 2026-04-15 03:47 | 12.17641 | -68.89421 | 2769 ft | 242 kts | 92° |
| 2026-04-15 03:47 | 12.17997 | -68.87744 | 3913 ft | 246 kts | 62° |
| 2026-04-15 03:48 | 12.19199 | -68.86489 | 4967 ft | 255 kts | 30° |
| 2026-04-15 03:48 | 12.20874 | -68.85814 | 5916 ft | 264 kts | 19° |
| 2026-04-15 03:48 | 12.22655 | -68.85260 | 6816 ft | 271 kts | 16° |
| 2026-04-15 03:48 | 12.24481 | -68.84720 | 7763 ft | 274 kts | 16° |
| 2026-04-15 03:49 | 12.26323 | -68.84173 | 8742 ft | 278 kts | 16° |
| 2026-04-15 03:49 | 12.28190 | -68.83610 | 9699 ft | 281 kts | 17° |
| 2026-04-15 03:49 | 12.30087 | -68.83031 | 10477 ft | 291 kts | 16° |
| 2026-04-15 03:49 | 12.32116 | -68.82405 | 10741 ft | 320 kts | 16° |
| 2026-04-15 03:50 | 12.34306 | -68.81725 | 10946 ft | 347 kts | 16° |
| 2026-04-15 03:50 | 12.36694 | -68.80979 | 11178 ft | 370 kts | 16° |
| 2026-04-15 03:50 | 12.39193 | -68.80193 | 11758 ft | 379 kts | 16° |
| 2026-04-15 03:50 | 12.41733 | -68.79393 | 12476 ft | 384 kts | 15° |
| 2026-04-15 03:51 | 12.44301 | -68.78582 | 13222 ft | 388 kts | 15° |
| 2026-04-15 03:51 | 12.46898 | -68.77762 | 13918 ft | 393 kts | 15° |
| 2026-04-15 03:51 | 12.49526 | -68.76932 | 14515 ft | 398 kts | 15° |
| 2026-04-15 03:51 | 12.52185 | -68.76092 | 15105 ft | 403 kts | 15° |
| 2026-04-15 03:52 | 12.54883 | -68.75240 | 15664 ft | 408 kts | 14° |
| 2026-04-15 03:52 | 12.57613 | -68.74378 | 16222 ft | 414 kts | 14° |
| 2026-04-15 03:52 | 12.60342 | -68.73515 | 16776 ft | 418 kts | 14° |
| 2026-04-15 03:52 | 12.63139 | -68.72631 | 17337 ft | 423 kts | 14° |
| 2026-04-15 03:53 | 12.65966 | -68.71737 | 17860 ft | 428 kts | 14° |
| 2026-04-15 03:53 | 12.68809 | -68.70760 | 18350 ft | 434 kts | 16° |
| 2026-04-15 03:53 | 12.71657 | -68.69698 | 18821 ft | 437 kts | 17° |
| 2026-04-15 03:53 | 12.74505 | -68.68600 | 19349 ft | 438 kts | 17° |
| 2026-04-15 03:54 | 12.77359 | -68.67491 | 19870 ft | 439 kts | 17° |
| 2026-04-15 03:54 | 12.80218 | -68.66385 | 20351 ft | 441 kts | 17° |
| 2026-04-15 03:54 | 12.83096 | -68.65279 | 20812 ft | 443 kts | 17° |
| 2026-04-15 03:55 | 12.88857 | -68.63083 | 21671 ft | 446 kts | 17° |
| 2026-04-15 03:55 | 12.91777 | -68.61975 | 22089 ft | 448 kts | 16° |
| 2026-04-15 03:55 | 12.94708 | -68.60865 | 22485 ft | 450 kts | 16° |
| 2026-04-15 03:55 | 12.97651 | -68.59750 | 22873 ft | 452 kts | 16° |
| 2026-04-15 03:56 | 13.00607 | -68.58630 | 23243 ft | 454 kts | 16° |
| 2026-04-15 03:56 | 13.03574 | -68.57506 | 23581 ft | 455 kts | 16° |
| 2026-04-15 03:56 | 13.06550 | -68.56378 | 23852 ft | 457 kts | 16° |
| 2026-04-15 03:56 | 13.09542 | -68.55243 | 24105 ft | 460 kts | 16° |
| 2026-04-15 03:57 | 13.12549 | -68.54102 | 24354 ft | 462 kts | 16° |
| 2026-04-15 03:57 | 13.15528 | -68.52972 | 24602 ft | 464 kts | 16° |
| 2026-04-15 03:57 | 13.18561 | -68.51821 | 24849 ft | 466 kts | 15° |
| 2026-04-15 03:57 | 13.21605 | -68.50665 | 25089 ft | 468 kts | 15° |
| 2026-04-15 03:58 | 13.24661 | -68.49504 | 25321 ft | 469 kts | 15° |
| 2026-04-15 03:58 | 13.27730 | -68.48338 | 25549 ft | 471 kts | 15° |
| 2026-04-15 03:58 | 13.30813 | -68.47166 | 25770 ft | 473 kts | 15° |
| 2026-04-15 03:58 | 13.33909 | -68.45989 | 25981 ft | 475 kts | 15° |
| 2026-04-15 03:59 | 13.37012 | -68.44809 | 26195 ft | 477 kts | 15° |
| 2026-04-15 03:59 | 13.40133 | -68.43622 | 26406 ft | 479 kts | 15° |
| 2026-04-15 03:59 | 13.43263 | -68.42431 | 26609 ft | 481 kts | 15° |
| 2026-04-15 03:59 | 13.46361 | -68.41252 | 26800 ft | 482 kts | 15° |
| 2026-04-15 04:00 | 13.49514 | -68.40052 | 26992 ft | 484 kts | 15° |
| 2026-04-15 04:00 | 13.52676 | -68.38847 | 27180 ft | 486 kts | 15° |
| 2026-04-15 04:00 | 13.55853 | -68.37637 | 27359 ft | 488 kts | 15° |
| 2026-04-15 04:00 | 13.59039 | -68.36424 | 27537 ft | 489 kts | 15° |
| 2026-04-15 04:01 | 13.62233 | -68.35206 | 27714 ft | 491 kts | 15° |
| 2026-04-15 04:01 | 13.65438 | -68.33984 | 27906 ft | 492 kts | 15° |
| 2026-04-15 04:01 | 13.68641 | -68.32762 | 28215 ft | 490 kts | 15° |
| 2026-04-15 04:01 | 13.71826 | -68.31545 | 28573 ft | 488 kts | 15° |
| 2026-04-15 04:02 | 13.74968 | -68.30346 | 28773 ft | 489 kts | 15° |
| 2026-04-15 04:02 | 13.78165 | -68.29126 | 28913 ft | 492 kts | 15° |
| 2026-04-15 04:02 | 13.81375 | -68.27902 | 28955 ft | 493 kts | 15° |
| 2026-04-15 04:03 | 13.87820 | -68.25441 | 28955 ft | 495 kts | 15° |
| 2026-04-15 04:03 | 13.94294 | -68.22967 | 28960 ft | 497 kts | 15° |
| 2026-04-15 04:04 | 14.00781 | -68.20486 | 28958 ft | 498 kts | 15° |
| 2026-04-15 04:04 | 14.07226 | -68.18019 | 28955 ft | 498 kts | 15° |
| 2026-04-15 04:05 | 14.13713 | -68.15534 | 28953 ft | 497 kts | 15° |
| 2026-04-15 04:05 | 14.20191 | -68.13052 | 28961 ft | 496 kts | 15° |
| 2026-04-15 04:06 | 14.26675 | -68.10568 | 28967 ft | 499 kts | 14° |
| 2026-04-15 04:06 | 14.33212 | -68.08063 | 29184 ft | 501 kts | 14° |
| 2026-04-15 04:06 | 14.36474 | -68.06810 | 29435 ft | 500 kts | 14° |
| 2026-04-15 04:07 | 14.39653 | -68.05585 | 30143 ft | 488 kts | 14° |
| 2026-04-15 04:07 | 14.42791 | -68.04372 | 30878 ft | 475 kts | 14° |
| 2026-04-15 04:07 | 14.45839 | -68.03194 | 31736 ft | 462 kts | 13° |
| 2026-04-15 04:07 | 14.48805 | -68.02048 | 32621 ft | 449 kts | 13° |
| 2026-04-15 04:08 | 14.51700 | -68.00933 | 33367 ft | 442 kts | 12° |
| 2026-04-15 04:08 | 14.54586 | -67.99829 | 33733 ft | 444 kts | 12° |
| 2026-04-15 04:08 | 14.57503 | -67.98718 | 33929 ft | 450 kts | 12° |
| 2026-04-15 04:08 | 14.60451 | -67.97594 | 34139 ft | 454 kts | 12° |
| 2026-04-15 04:09 | 14.63421 | -67.96457 | 34411 ft | 456 kts | 12° |
| 2026-04-15 04:09 | 14.66363 | -67.95327 | 34681 ft | 458 kts | 12° |
| 2026-04-15 04:09 | 14.69353 | -67.94176 | 34921 ft | 460 kts | 12° |
| 2026-04-15 04:10 | 14.75424 | -67.91840 | 34977 ft | 472 kts | 13° |
| 2026-04-15 04:10 | 14.81657 | -67.89441 | 34982 ft | 483 kts | 13° |
| 2026-04-15 04:11 | 14.88015 | -67.86989 | 34974 ft | 492 kts | 13° |
| 2026-04-15 04:11 | 14.94472 | -67.84493 | 34967 ft | 497 kts | 13° |
| 2026-04-15 04:12 | 15.00910 | -67.82002 | 34965 ft | 498 kts | 13° |
| 2026-04-15 04:12 | 15.07399 | -67.79492 | 34966 ft | 498 kts | 13° |
| 2026-04-15 04:13 | 15.13888 | -67.76983 | 34966 ft | 498 kts | 13° |
| 2026-04-15 04:13 | 15.20371 | -67.74474 | 34967 ft | 497 kts | 13° |
| 2026-04-15 04:14 | 15.26853 | -67.71965 | 34970 ft | 497 kts | 13° |
| 2026-04-15 04:14 | 15.33285 | -67.69473 | 34969 ft | 497 kts | 13° |
| 2026-04-15 04:15 | 15.39758 | -67.66964 | 34970 ft | 496 kts | 13° |
| 2026-04-15 04:15 | 15.46223 | -67.64456 | 34973 ft | 496 kts | 13° |
| 2026-04-15 04:16 | 15.52683 | -67.61949 | 34971 ft | 496 kts | 13° |
| 2026-04-15 04:16 | 15.59098 | -67.59457 | 34970 ft | 495 kts | 13° |
| 2026-04-15 04:17 | 15.65549 | -67.56950 | 34974 ft | 495 kts | 13° |
| 2026-04-15 04:17 | 15.71996 | -67.54442 | 34975 ft | 495 kts | 12° |
| 2026-04-15 04:18 | 15.78439 | -67.51933 | 34973 ft | 495 kts | 12° |
| 2026-04-15 04:18 | 15.84886 | -67.49416 | 34973 ft | 495 kts | 13° |
| 2026-04-15 04:19 | 15.91263 | -67.46824 | 34975 ft | 496 kts | 13° |
| 2026-04-15 04:19 | 15.97672 | -67.44176 | 34971 ft | 496 kts | 13° |
| 2026-04-15 04:20 | 16.04085 | -67.41533 | 34973 ft | 496 kts | 13° |
| 2026-04-15 04:20 | 16.10502 | -67.38898 | 34974 ft | 496 kts | 13° |
| 2026-04-15 04:21 | 16.16916 | -67.36266 | 34976 ft | 496 kts | 13° |
| 2026-04-15 04:21 | 16.23285 | -67.33651 | 34976 ft | 495 kts | 13° |
| 2026-04-15 04:22 | 16.29695 | -67.31016 | 34972 ft | 495 kts | 13° |
| 2026-04-15 04:22 | 16.36110 | -67.28377 | 34971 ft | 495 kts | 13° |
| 2026-04-15 04:23 | 16.42518 | -67.25740 | 34975 ft | 495 kts | 13° |
| 2026-04-15 04:23 | 16.48925 | -67.23100 | 34975 ft | 495 kts | 13° |
| 2026-04-15 04:24 | 16.55337 | -67.20458 | 34974 ft | 495 kts | 13° |
| 2026-04-15 04:24 | 16.61703 | -67.17831 | 34974 ft | 495 kts | 13° |
| 2026-04-15 04:25 | 16.68113 | -67.15185 | 34973 ft | 495 kts | 13° |
| 2026-04-15 04:25 | 16.74522 | -67.12537 | 34977 ft | 495 kts | 13° |
| 2026-04-15 04:26 | 16.80930 | -67.09888 | 34976 ft | 496 kts | 13° |
| 2026-04-15 04:26 | 16.87300 | -67.07253 | 34977 ft | 496 kts | 13° |
| 2026-04-15 04:27 | 16.93710 | -67.04598 | 34979 ft | 496 kts | 13° |
| 2026-04-15 04:27 | 17.00117 | -67.01943 | 34957 ft | 496 kts | 13° |
| 2026-04-15 04:27 | 17.03337 | -67.00610 | 34708 ft | 498 kts | 13° |
| 2026-04-15 04:28 | 17.06521 | -66.99161 | 34485 ft | 501 kts | 18° |
| 2026-04-15 04:28 | 17.09641 | -66.97519 | 34268 ft | 503 kts | 20° |
| 2026-04-15 04:28 | 17.12743 | -66.95801 | 34055 ft | 505 kts | 20° |
| 2026-04-15 04:28 | 17.15836 | -66.94057 | 33819 ft | 506 kts | 21° |
| 2026-04-15 04:29 | 17.18896 | -66.92332 | 33571 ft | 506 kts | 21° |
| 2026-04-15 04:29 | 17.22001 | -66.90595 | 33324 ft | 506 kts | 20° |
| 2026-04-15 04:29 | 17.25108 | -66.88871 | 33082 ft | 506 kts | 20° |
| 2026-04-15 04:29 | 17.28220 | -66.87154 | 32837 ft | 505 kts | 20° |
| 2026-04-15 04:30 | 17.31327 | -66.85446 | 32556 ft | 504 kts | 20° |
| 2026-04-15 04:30 | 17.34442 | -66.83738 | 31505 ft | 508 kts | 21° |
| 2026-04-15 04:30 | 17.37570 | -66.82022 | 30572 ft | 508 kts | 21° |
| 2026-04-15 04:30 | 17.40706 | -66.80302 | 29405 ft | 510 kts | 21° |
| 2026-04-15 04:31 | 17.43856 | -66.78572 | 28159 ft | 511 kts | 22° |
| 2026-04-15 04:31 | 17.46963 | -66.76862 | 26929 ft | 512 kts | 23° |
| 2026-04-15 04:31 | 17.50115 | -66.75126 | 25731 ft | 512 kts | 24° |
| 2026-04-15 04:31 | 17.53250 | -66.73397 | 24774 ft | 506 kts | 24° |
| 2026-04-15 04:32 | 17.56355 | -66.71685 | 23896 ft | 501 kts | 25° |
| 2026-04-15 04:32 | 17.59409 | -66.69999 | 22843 ft | 495 kts | 25° |
| 2026-04-15 04:32 | 17.62429 | -66.68332 | 22101 ft | 483 kts | 26° |
| 2026-04-15 04:32 | 17.65387 | -66.66699 | 21027 ft | 479 kts | 26° |
| 2026-04-15 04:33 | 17.68299 | -66.65092 | 20216 ft | 468 kts | 26° |
| 2026-04-15 04:33 | 17.71174 | -66.63506 | 19357 ft | 461 kts | 26° |
| 2026-04-15 04:33 | 17.73987 | -66.61953 | 18469 ft | 455 kts | 27° |
| 2026-04-15 04:33 | 17.76737 | -66.60435 | 17660 ft | 448 kts | 27° |
| 2026-04-15 04:34 | 17.79467 | -66.58926 | 16642 ft | 443 kts | 27° |
| 2026-04-15 04:34 | 17.82161 | -66.57437 | 15882 ft | 432 kts | 27° |
| 2026-04-15 04:34 | 17.84817 | -66.55968 | 15009 ft | 428 kts | 27° |
| 2026-04-15 04:34 | 17.87424 | -66.54526 | 14115 ft | 423 kts | 27° |
| 2026-04-15 04:35 | 17.90002 | -66.53099 | 13333 ft | 414 kts | 27° |
| 2026-04-15 04:35 | 17.92544 | -66.51692 | 12439 ft | 410 kts | 27° |
| 2026-04-15 04:35 | 17.95048 | -66.50305 | 11513 ft | 406 kts | 27° |
| 2026-04-15 04:35 | 17.97509 | -66.48942 | 10968 ft | 388 kts | 27° |
| 2026-04-15 04:36 | 17.99807 | -66.47667 | 10679 ft | 360 kts | 27° |
| 2026-04-15 04:36 | 18.01915 | -66.46497 | 10513 ft | 335 kts | 26° |
| 2026-04-15 04:36 | 18.03907 | -66.45393 | 10354 ft | 313 kts | 26° |
| 2026-04-15 04:36 | 18.05735 | -66.44277 | 10219 ft | 298 kts | 36° |
| 2026-04-15 04:37 | 18.07197 | -66.42779 | 10125 ft | 292 kts | 47° |
| 2026-04-15 04:37 | 18.08546 | -66.41174 | 10013 ft | 294 kts | 47° |
| 2026-04-15 04:37 | 18.09893 | -66.39562 | 9712 ft | 293 kts | 47° |
| 2026-04-15 04:37 | 18.11244 | -66.37958 | 9332 ft | 292 kts | 47° |
| 2026-04-15 04:38 | 18.12137 | -66.36907 | 9097 ft | 291 kts | 47° |
| 2026-04-15 04:38 | 18.13482 | -66.35330 | 8734 ft | 289 kts | 47° |
| 2026-04-15 04:38 | 18.14824 | -66.33760 | 8363 ft | 288 kts | 47° |
| 2026-04-15 04:38 | 18.16590 | -66.31696 | 7909 ft | 287 kts | 47° |
| 2026-04-15 04:39 | 18.17929 | -66.30137 | 7527 ft | 287 kts | 47° |
| 2026-04-15 04:39 | 18.19267 | -66.28578 | 7167 ft | 288 kts | 47° |
| 2026-04-15 04:39 | 18.20156 | -66.27545 | 6926 ft | 288 kts | 47° |
| 2026-04-15 04:39 | 18.21498 | -66.25984 | 6566 ft | 288 kts | 47° |
| 2026-04-15 04:40 | 18.22838 | -66.24424 | 6181 ft | 287 kts | 47° |
| 2026-04-15 04:40 | 18.24170 | -66.22871 | 5806 ft | 283 kts | 48° |
| 2026-04-15 04:40 | 18.25465 | -66.21360 | 5439 ft | 273 kts | 48° |
| 2026-04-15 04:40 | 18.26869 | -66.20063 | 5071 ft | 270 kts | 28° |
| 2026-04-15 04:41 | 18.29235 | -66.19377 | 4659 ft | 266 kts | 8° |
| 2026-04-15 04:41 | 18.31067 | -66.19120 | 4321 ft | 266 kts | 8° |
| 2026-04-15 04:41 | 18.32303 | -66.18946 | 4082 ft | 265 kts | 8° |
| 2026-04-15 04:41 | 18.34133 | -66.18682 | 3759 ft | 265 kts | 8° |
| 2026-04-15 04:42 | 18.35909 | -66.18420 | 3647 ft | 257 kts | 7° |
| 2026-04-15 04:42 | 18.37663 | -66.18594 | 3487 ft | 253 kts | 343° |
| 2026-04-15 04:42 | 18.39277 | -66.19259 | 3381 ft | 245 kts | 342° |
| 2026-04-15 04:42 | 18.40909 | -66.19645 | 3298 ft | 236 kts | 357° |
| 2026-04-15 04:43 | 18.42448 | -66.19276 | 3160 ft | 223 kts | 35° |
| 2026-04-15 04:43 | 18.43371 | -66.18065 | 3000 ft | 213 kts | 73° |
| 2026-04-15 04:43 | 18.43432 | -66.16545 | 2784 ft | 207 kts | 94° |
| 2026-04-15 04:43 | 18.43388 | -66.15061 | 2536 ft | 195 kts | 90° |
| 2026-04-15 04:44 | 18.43354 | -66.13744 | 2612 ft | 163 kts | 91° |
| 2026-04-15 04:44 | 18.43363 | -66.12585 | 2410 ft | 157 kts | 87° |
| 2026-04-15 04:44 | 18.43438 | -66.11456 | 2245 ft | 156 kts | 85° |
| 2026-04-15 04:44 | 18.43607 | -66.10334 | 1990 ft | 158 kts | 83° |
| 2026-04-15 04:45 | 18.43626 | -66.09173 | 1669 ft | 159 kts | 88° |
| 2026-04-15 04:45 | 18.43583 | -66.08057 | 1445 ft | 157 kts | 98° |
| 2026-04-15 04:46 | 18.43449 | -66.07125 | 1243 ft | 155 kts | 101° |
| 2026-04-15 04:47 | 18.43340 | -66.06018 | 994 ft | 151 kts | 88° |
| 2026-04-15 04:47 | 18.43376 | -66.04913 | 690 ft | 151 kts | 88° |
| 2026-04-15 04:47 | 18.43365 | -66.03835 | 488 ft | 143 kts | 91° |
| 2026-04-15 04:47 | 18.43352 | -66.02797 | 306 ft | 140 kts | 90° |
| 2026-04-15 04:48 | 18.43359 | -66.01776 | 108 ft | 139 kts | 90° |
| 2026-04-15 04:48 | 18.43358 | -66.00826 | 16 ft | 116 kts | 92° |
| 2026-04-15 04:48 | 18.43355 | -66.00245 | 16 ft | 46 kts | 90° |
| 2026-04-15 04:48 | 18.43365 | -66.00004 | 19 ft | 18 kts | 74° |
| 2026-04-15 04:49 | 18.43414 | -65.99907 | 19 ft | 13 kts | 45° |
| 2026-04-15 04:49 | 18.43465 | -65.99930 | 18 ft | 9 kts | 274° |
| 2026-04-15 04:49 | 18.43467 | -65.99993 | 18 ft | 9 kts | 268° |
| 2026-04-15 04:49 | 18.43465 | -66.00064 | 18 ft | 10 kts | 268° |
| 2026-04-15 04:50 | 18.43463 | -66.00149 | 17 ft | 13 kts | 271° |
| 2026-04-15 04:50 | 18.43466 | -66.00248 | 17 ft | 14 kts | 273° |
| 2026-04-15 04:50 | 18.43476 | -66.00343 | 20 ft | 13 kts | 277° |
| 2026-04-15 04:50 | 18.43523 | -66.00415 | 17 ft | 10 kts | 334° |
| 2026-04-15 04:51 | 18.43565 | -66.00417 | 17 ft | 4 kts | 1° |
| 2026-04-15 04:51 | 18.43573 | -66.00417 | 17 ft | 0 kts | 1° |